< Typhoon 199802 1998 Season Typhoon 199804 >
Typhoon 199803 (PENNY)
General InformationTrack Information on Google MapsDetailed Wind InformationList of All Images || Disaster Info.ResourceGoogle EarthGE AnimationAtom FeedGeoJSON
Detalied Best Track (Time Zone = UTC)
Year Month Day Hour Lat. Long. Pressure (hPa) Wind (kt) Class Image Chart
1998 8 6 00 12.0 127.4 1008 0 2 Image Chart
1998 8 6 06 12.7 126.8 1008 0 2 Image Chart
1998 8 6 12 13.3 126.5 1008 0 2 Image Chart
1998 8 6 18 14.3 126.2 1008 0 2 Image Chart
1998 8 7 00 15.2 125.8 1004 0 2 Image Chart
1998 8 7 06 16.0 125.0 1004 0 2 Image Chart
1998 8 7 12 16.4 124.1 1004 0 2 Image Chart
1998 8 7 18 16.8 123.2 1004 0 2 Image Chart
1998 8 8 00 17.1 122.2 1004 0 2 Image Chart
1998 8 8 06 17.6 121.1 1004 0 2 Image Chart
1998 8 8 12 18.2 119.7 1004 0 2 Image Chart
1998 8 8 18 18.9 118.8 1000 0 2 Image Chart
1998 8 9 00 19.3 117.6 996 35 3 Image Chart
1998 8 9 06 19.4 116.6 992 40 3 Image Chart
1998 8 9 12 19.5 115.9 992 40 3 Image Chart
1998 8 9 18 19.8 115.1 990 45 3 Image Chart
1998 8 10 00 20.1 114.3 990 45 3 Image Chart
1998 8 10 06 20.3 113.5 985 50 4 Image Chart
1998 8 10 12 20.4 112.5 985 50 4 Image Chart
1998 8 10 18 20.9 111.6 990 45 3 Image Chart
1998 8 11 00 21.9 111.0 992 40 3 Image Chart
1998 8 11 06 22.9 110.1 996 35 3 Image Chart
1998 8 11 12 23.7 108.9 998 0 2 Image Chart
Japan Meteorological Agency Best Track Data | Correction Date : 1999-01-11
< Typhoon 199802 1998 Season Typhoon 199804 >

Help